Topeka, IN (46571)

5:53 AM EDT on May 30, 2015 (GMT -0400)
Sugarhill Farms | | Change Station
CLOSE
Current Station
Personal Weather Station
Location: Ligonier, IN
Elevation: 879 ft
Nearby Weather Stations

Elev 879 ft 41.42 °N, 85.61 °W | Updated 11 minutes ago

Partly Cloudy
Partly Cloudy
69.7 °F
Feels Like 69.7 °F
N
5.0
Wind Variable Wind from SSW
Gusts 10.0 mph

Today
High -- | Low -- °F
--% Chance of Precip.
Yesterday
High -- | Low -- °F
Precip. -- in
6:11 AM 9:08 PM
Waxing Gibbous, 89% visible
Pressure 29.95 in
Visibility 8.0 miles
Clouds Few 2400 ft
Mostly Cloudy 7500 ft
Mostly Cloudy 9000 ft
Dew Point 66 °F
Humidity 87%
Rainfall 0.00 in
Snow Depth Not available.
UV 0 out of 12
Pollen 9.40 out of 12
Air Quality Not available.
Flu Activity No Activity
METAR KGSH 300853Z AUTO 21007KT 8SM FEW024 BKN075 BKN090 21/18 A2997 RMK AO2 SLP141 T02060183 56002 TSNO

More Conditions Fewer Conditions

Pressure 29.95 in
Visibility 8.0 miles
Clouds Few 2400 ft
Mostly Cloudy 7500 ft
Mostly Cloudy 9000 ft
Dew Point 66 °F
Humidity 87%
Rainfall 0.00 in
Snow Depth Not available.
UV 0 out of 12
Pollen 9.40 out of 12
Air Quality Not available.
Flu Activity No Activity
METAR KGSH 300853Z AUTO 21007KT 8SM FEW024 BKN075 BKN090 21/18 A2997 RMK AO2 SLP141 T02060183 56002 TSNO

More Conditions Fewer Conditions

10-Day Weather Forecast

Almanac

Astronomy

May. 30, 2015 Rise Set
Actual Time
Civil Twilight
Nautical Twilight
Astronomical Twilight
Moon
Length of Visible Light
Length of Day
Tomorrow will be .
, % of the Moon is Illuminated

Today's Extremes

State Highs State Lows

Community

WunderPhotos

Upload Photos

1,825,476 photos uploaded!

WunderBlogs® & News

Nearby

Air Quality

  Air Quality AQ Index Pollutant
Not available.

Snow Depth

Station Depth Elevation

Earthquake Activity

City Distance Mag. Time & Date
Minimum magnitude displayed is 2.5.

Coastal Water Temperatures

Place Temperature

Stations

Nearby Weather Stations

Station Location Temp. Windchill Dew Point Humidity Wind Precip. Elev Updated Type